sensor_id;sensor_type;location;lat;lon;timestamp;pressure;altitude;pressure_sealevel;temperature;humidity
4469;BME280;2247;42.666;23.292;2023-04-25T00:00:29;93630.00;;;15.79;63.60
4469;BME280;2247;42.666;23.292;2023-04-25T00:02:56;93624.44;;;15.63;63.68
4469;BME280;2247;42.666;23.292;2023-04-25T00:05:25;93581.78;;;15.30;63.97
4469;BME280;2247;42.666;23.292;2023-04-25T00:07:52;93610.06;;;15.35;64.86
4469;BME280;2247;42.666;23.292;2023-04-25T00:10:20;93600.78;;;15.12;64.31
4469;BME280;2247;42.666;23.292;2023-04-25T00:12:46;93600.00;;;15.03;65.11
4469;BME280;2247;42.666;23.292;2023-04-25T00:15:14;93584.78;;;14.91;65.04
4469;BME280;2247;42.666;23.292;2023-04-25T00:17:42;93578.06;;;14.85;63.60
4469;BME280;2247;42.666;23.292;2023-04-25T00:20:11;93571.59;;;15.03;62.56
4469;BME280;2247;42.666;23.292;2023-04-25T00:22:38;93573.63;;;15.06;62.01
4469;BME280;2247;42.666;23.292;2023-04-25T00:25:06;93568.66;;;15.05;60.75
4469;BME280;2247;42.666;23.292;2023-04-25T00:27:33;93575.28;;;15.19;60.33
4469;BME280;2247;42.666;23.292;2023-04-25T00:29:59;93579.88;;;15.40;59.22
4469;BME280;2247;42.666;23.292;2023-04-25T00:32:26;93584.56;;;15.72;59.26
4469;BME280;2247;42.666;23.292;2023-04-25T00:34:54;93584.75;;;15.67;61.69
4469;BME280;2247;42.666;23.292;2023-04-25T00:37:23;93579.31;;;15.84;59.92
4469;BME280;2247;42.666;23.292;2023-04-25T00:39:50;93576.03;;;15.87;60.60
4469;BME280;2247;42.666;23.292;2023-04-25T00:42:19;93579.59;;;15.91;61.30
4469;BME280;2247;42.666;23.292;2023-04-25T00:44:46;93583.78;;;15.71;63.29
4469;BME280;2247;42.666;23.292;2023-04-25T00:47:15;93595.91;;;15.52;65.05
4469;BME280;2247;42.666;23.292;2023-04-25T00:49:42;93591.56;;;15.47;65.84
4469;BME280;2247;42.666;23.292;2023-04-25T00:52:10;93586.19;;;15.26;66.94
4469;BME280;2247;42.666;23.292;2023-04-25T00:54:38;93570.97;;;15.06;68.13
4469;BME280;2247;42.666;23.292;2023-04-25T00:57:05;93563.06;;;14.97;67.36
4469;BME280;2247;42.666;23.292;2023-04-25T00:59:32;93563.09;;;14.80;67.05
4469;BME280;2247;42.666;23.292;2023-04-25T01:01:59;93556.84;;;14.85;67.00
4469;BME280;2247;42.666;23.292;2023-04-25T01:04:27;93565.22;;;14.95;67.68
4469;BME280;2247;42.666;23.292;2023-04-25T01:06:54;93558.84;;;14.88;69.58
4469;BME280;2247;42.666;23.292;2023-04-25T01:09:22;93565.00;;;14.71;71.19
4469;BME280;2247;42.666;23.292;2023-04-25T01:11:49;93558.16;;;14.62;71.88
4469;BME280;2247;42.666;23.292;2023-04-25T01:14:16;93566.00;;;14.49;72.43
4469;BME280;2247;42.666;23.292;2023-04-25T01:16:43;93544.19;;;14.44;72.06
4469;BME280;2247;42.666;23.292;2023-04-25T01:19:10;93552.09;;;14.52;71.47
4469;BME280;2247;42.666;23.292;2023-04-25T01:21:39;93544.97;;;14.44;71.99
4469;BME280;2247;42.666;23.292;2023-04-25T01:24:06;93537.72;;;14.62;71.92
4469;BME280;2247;42.666;23.292;2023-04-25T01:26:35;93518.59;;;14.39;71.78
4469;BME280;2247;42.666;23.292;2023-04-25T01:29:03;93539.13;;;14.59;72.11
4469;BME280;2247;42.666;23.292;2023-04-25T01:31:32;93547.84;;;14.77;72.17
4469;BME280;2247;42.666;23.292;2023-04-25T01:34:00;93542.31;;;14.91;70.89
4469;BME280;2247;42.666;23.292;2023-04-25T01:36:27;93544.66;;;14.92;70.22
4469;BME280;2247;42.666;23.292;2023-04-25T01:38:56;93556.56;;;14.86;70.27
4469;BME280;2247;42.666;23.292;2023-04-25T01:41:23;93551.53;;;14.93;70.42
4469;BME280;2247;42.666;23.292;2023-04-25T01:43:50;93552.84;;;15.08;69.72
4469;BME280;2247;42.666;23.292;2023-04-25T01:46:17;93544.56;;;15.10;69.84
4469;BME280;2247;42.666;23.292;2023-04-25T01:48:44;93560.09;;;14.99;69.63
4469;BME280;2247;42.666;23.292;2023-04-25T01:51:11;93560.41;;;14.89;70.24
4469;BME280;2247;42.666;23.292;2023-04-25T01:53:38;93555.31;;;14.75;70.27
4469;BME280;2247;42.666;23.292;2023-04-25T01:56:07;93572.00;;;14.84;71.13
4469;BME280;2247;42.666;23.292;2023-04-25T01:58:34;93568.09;;;14.82;71.06
4469;BME280;2247;42.666;23.292;2023-04-25T02:01:01;93564.03;;;14.84;70.98
4469;BME280;2247;42.666;23.292;2023-04-25T02:03:28;93560.41;;;14.89;70.37
4469;BME280;2247;42.666;23.292;2023-04-25T02:05:55;93550.81;;;15.14;69.78
4469;BME280;2247;42.666;23.292;2023-04-25T02:08:22;93552.84;;;15.08;69.71
4469;BME280;2247;42.666;23.292;2023-04-25T02:10:51;93551.16;;;15.04;69.70
4469;BME280;2247;42.666;23.292;2023-04-25T02:13:19;93548.94;;;15.14;68.88
4469;BME280;2247;42.666;23.292;2023-04-25T02:15:46;93546.16;;;15.02;69.55
4469;BME280;2247;42.666;23.292;2023-04-25T02:18:13;93529.88;;;14.83;70.60
4469;BME280;2247;42.666;23.292;2023-04-25T02:20:41;93530.03;;;14.78;70.60
4469;BME280;2247;42.666;23.292;2023-04-25T02:23:08;93524.16;;;14.72;70.70
4469;BME280;2247;42.666;23.292;2023-04-25T02:25:35;93518.16;;;14.84;69.55
4469;BME280;2247;42.666;23.292;2023-04-25T02:28:02;93516.03;;;15.07;68.97
4469;BME280;2247;42.666;23.292;2023-04-25T02:30:30;93521.44;;;15.19;68.60
4469;BME280;2247;42.666;23.292;2023-04-25T02:32:57;93516.91;;;15.19;68.14
4469;BME280;2247;42.666;23.292;2023-04-25T02:35:24;93510.84;;;15.10;68.42
4469;BME280;2247;42.666;23.292;2023-04-25T02:37:51;93505.25;;;15.12;68.62
4469;BME280;2247;42.666;23.292;2023-04-25T02:40:17;93511.00;;;15.14;68.44
4469;BME280;2247;42.666;23.292;2023-04-25T02:42:45;93510.75;;;15.07;68.15
4469;BME280;2247;42.666;23.292;2023-04-25T02:45:12;93513.91;;;14.91;69.08
4469;BME280;2247;42.666;23.292;2023-04-25T02:47:40;93507.56;;;14.84;69.80
4469;BME280;2247;42.666;23.292;2023-04-25T02:50:08;93502.78;;;14.69;70.35
4469;BME280;2247;42.666;23.292;2023-04-25T02:52:34;93497.66;;;14.55;70.75
4469;BME280;2247;42.666;23.292;2023-04-25T02:55:01;93497.06;;;14.49;70.68
4469;BME280;2247;42.666;23.292;2023-04-25T02:57:28;93499.25;;;14.39;71.39
4469;BME280;2247;42.666;23.292;2023-04-25T02:59:55;93491.94;;;14.44;71.49
4469;BME280;2247;42.666;23.292;2023-04-25T03:02:22;93493.16;;;14.47;71.16
4469;BME280;2247;42.666;23.292;2023-04-25T03:04:50;93485.50;;;14.54;70.87
4469;BME280;2247;42.666;23.292;2023-04-25T03:07:17;93489.53;;;14.60;70.63
4469;BME280;2247;42.666;23.292;2023-04-25T03:09:45;93487.50;;;14.66;70.50
4469;BME280;2247;42.666;23.292;2023-04-25T03:12:12;93488.25;;;14.66;70.36
4469;BME280;2247;42.666;23.292;2023-04-25T03:14:39;93494.19;;;14.72;69.93
4469;BME280;2247;42.666;23.292;2023-04-25T03:17:06;93491.88;;;14.62;70.60
4469;BME280;2247;42.666;23.292;2023-04-25T03:19:33;93480.84;;;14.89;69.71
4469;BME280;2247;42.666;23.292;2023-04-25T03:22:01;93486.56;;;15.00;68.86
4469;BME280;2247;42.666;23.292;2023-04-25T03:24:28;93487.97;;;14.97;68.73
4469;BME280;2247;42.666;23.292;2023-04-25T03:26:55;93489.75;;;14.84;69.81
4469;BME280;2247;42.666;23.292;2023-04-25T03:29:22;93469.50;;;15.09;68.44
4469;BME280;2247;42.666;23.292;2023-04-25T03:31:51;93481.16;;;15.17;68.69
4469;BME280;2247;42.666;23.292;2023-04-25T03:34:18;93476.97;;;14.86;68.94
4469;BME280;2247;42.666;23.292;2023-04-25T03:36:46;93470.31;;;14.72;69.69
4469;BME280;2247;42.666;23.292;2023-04-25T03:39:14;93489.59;;;14.51;70.23
4469;BME280;2247;42.666;23.292;2023-04-25T03:41:41;93487.66;;;14.61;70.07
4469;BME280;2247;42.666;23.292;2023-04-25T03:44:09;93486.94;;;14.51;69.78
4469;BME280;2247;42.666;23.292;2023-04-25T03:46:35;93475.88;;;14.41;70.54
4469;BME280;2247;42.666;23.292;2023-04-25T03:49:02;93478.22;;;14.42;70.82
4469;BME280;2247;42.666;23.292;2023-04-25T03:51:30;93473.22;;;14.49;71.38
4469;BME280;2247;42.666;23.292;2023-04-25T03:53:56;93469.66;;;14.75;70.60
4469;BME280;2247;42.666;23.292;2023-04-25T03:56:25;93471.44;;;15.00;70.56
4469;BME280;2247;42.666;23.292;2023-04-25T03:58:52;93483.06;;;15.37;69.94
4469;BME280;2247;42.666;23.292;2023-04-25T04:01:19;93480.03;;;15.56;68.57
4469;BME280;2247;42.666;23.292;2023-04-25T04:03:46;93479.53;;;15.95;66.85
4469;BME280;2247;42.666;23.292;2023-04-25T04:06:13;93486.63;;;16.24;65.58
4469;BME280;2247;42.666;23.292;2023-04-25T04:08:40;93469.88;;;16.24;64.76
4469;BME280;2247;42.666;23.292;2023-04-25T04:11:07;93469.91;;;16.36;64.32
4469;BME280;2247;42.666;23.292;2023-04-25T04:13:35;93484.84;;;16.61;64.03
4469;BME280;2247;42.666;23.292;2023-04-25T04:16:02;93504.28;;;16.41;63.99
4469;BME280;2247;42.666;23.292;2023-04-25T04:18:29;93507.38;;;16.43;64.22
4469;BME280;2247;42.666;23.292;2023-04-25T04:20:56;93497.22;;;16.45;64.00
4469;BME280;2247;42.666;23.292;2023-04-25T04:23:23;93488.03;;;16.22;63.55
4469;BME280;2247;42.666;23.292;2023-04-25T04:25:52;93487.91;;;16.18;63.92
4469;BME280;2247;42.666;23.292;2023-04-25T04:28:19;93491.91;;;15.91;64.08
4469;BME280;2247;42.666;23.292;2023-04-25T04:30:48;93502.78;;;15.57;65.40
4469;BME280;2247;42.666;23.292;2023-04-25T04:33:16;93504.88;;;15.43;65.55
4469;BME280;2247;42.666;23.292;2023-04-25T04:35:44;93488.00;;;15.26;66.09
4469;BME280;2247;42.666;23.292;2023-04-25T04:38:12;93497.03;;;14.96;68.45
4469;BME280;2247;42.666;23.292;2023-04-25T04:40:40;93475.78;;;15.05;68.46
4469;BME280;2247;42.666;23.292;2023-04-25T04:43:08;93482.63;;;15.06;68.42
4469;BME280;2247;42.666;23.292;2023-04-25T04:45:35;93491.31;;;14.85;69.44
4469;BME280;2247;42.666;23.292;2023-04-25T04:48:05;93489.97;;;14.71;70.30
4469;BME280;2247;42.666;23.292;2023-04-25T04:50:32;93482.22;;;14.95;68.96
4469;BME280;2247;42.666;23.292;2023-04-25T04:52:59;93486.63;;;14.91;69.24
4469;BME280;2247;42.666;23.292;2023-04-25T04:55:26;93499.38;;;14.97;68.87
4469;BME280;2247;42.666;23.292;2023-04-25T04:57:53;93499.91;;;14.82;69.30
4469;BME280;2247;42.666;23.292;2023-04-25T05:00:20;93501.81;;;14.73;69.05
4469;BME280;2247;42.666;23.292;2023-04-25T05:02:47;93495.91;;;14.68;68.54
4469;BME280;2247;42.666;23.292;2023-04-25T05:05:16;93514.03;;;14.57;69.83
4469;BME280;2247;42.666;23.292;2023-04-25T05:07:42;93501.28;;;14.50;70.27
4469;BME280;2247;42.666;23.292;2023-04-25T05:10:10;93529.94;;;14.66;70.98
4469;BME280;2247;42.666;23.292;2023-04-25T05:12:37;93523.94;;;14.86;70.41
4469;BME280;2247;42.666;23.292;2023-04-25T05:15:05;93529.63;;;15.05;69.99
4469;BME280;2247;42.666;23.292;2023-04-25T05:17:32;93512.78;;;15.01;69.18
4469;BME280;2247;42.666;23.292;2023-04-25T05:19:59;93510.97;;;14.93;68.65
4469;BME280;2247;42.666;23.292;2023-04-25T05:22:28;93514.84;;;14.87;69.42
4469;BME280;2247;42.666;23.292;2023-04-25T05:24:55;93508.84;;;14.69;70.09
4469;BME280;2247;42.666;23.292;2023-04-25T05:27:22;93520.28;;;14.52;71.26
4469;BME280;2247;42.666;23.292;2023-04-25T05:32:24;93522.22;;;14.81;70.88
4469;BME280;2247;42.666;23.292;2023-04-25T05:34:51;93524.66;;;14.95;70.78
4469;BME280;2247;42.666;23.292;2023-04-25T05:37:18;93521.66;;;15.05;70.38
4469;BME280;2247;42.666;23.292;2023-04-25T05:39:46;93520.72;;;15.01;70.81
4469;BME280;2247;42.666;23.292;2023-04-25T05:42:13;93522.00;;;14.95;70.90
4469;BME280;2247;42.666;23.292;2023-04-25T05:44:40;93524.22;;;14.93;70.81
4469;BME280;2247;42.666;23.292;2023-04-25T05:47:06;93523.28;;;14.89;70.29
4469;BME280;2247;42.666;23.292;2023-04-25T05:49:34;93528.75;;;14.92;70.90
4469;BME280;2247;42.666;23.292;2023-04-25T05:52:00;93523.63;;;15.17;70.36
4469;BME280;2247;42.666;23.292;2023-04-25T05:54:27;93511.50;;;15.36;69.03
4469;BME280;2247;42.666;23.292;2023-04-25T05:56:56;93522.06;;;15.45;69.02
4469;BME280;2247;42.666;23.292;2023-04-25T05:59:22;93528.34;;;15.11;69.44
4469;BME280;2247;42.666;23.292;2023-04-25T06:01:49;93528.97;;;15.08;70.08
4469;BME280;2247;42.666;23.292;2023-04-25T06:04:16;93520.66;;;15.18;70.25
4469;BME280;2247;42.666;23.292;2023-04-25T06:06:43;93519.00;;;15.05;70.45
4469;BME280;2247;42.666;23.292;2023-04-25T06:09:10;93516.84;;;14.98;70.66
4469;BME280;2247;42.666;23.292;2023-04-25T06:11:37;93527.97;;;14.92;70.91
4469;BME280;2247;42.666;23.292;2023-04-25T06:14:05;93523.16;;;14.85;71.38
4469;BME280;2247;42.666;23.292;2023-04-25T06:16:32;93522.78;;;14.95;71.49
4469;BME280;2247;42.666;23.292;2023-04-25T06:18:59;93526.38;;;15.00;69.99
4469;BME280;2247;42.666;23.292;2023-04-25T06:21:26;93527.53;;;15.19;69.33
4469;BME280;2247;42.666;23.292;2023-04-25T06:23:53;93532.59;;;15.33;68.76
4469;BME280;2247;42.666;23.292;2023-04-25T06:26:20;93532.00;;;15.57;68.61
4469;BME280;2247;42.666;23.292;2023-04-25T06:28:47;93533.72;;;15.61;67.60
4469;BME280;2247;42.666;23.292;2023-04-25T06:31:16;93531.19;;;15.65;67.51
4469;BME280;2247;42.666;23.292;2023-04-25T06:33:43;93534.25;;;15.75;67.54
4469;BME280;2247;42.666;23.292;2023-04-25T06:36:10;93530.44;;;16.18;66.85
4469;BME280;2247;42.666;23.292;2023-04-25T06:38:37;93531.84;;;16.36;65.67
4469;BME280;2247;42.666;23.292;2023-04-25T06:41:04;93542.16;;;16.38;65.59
4469;BME280;2247;42.666;23.292;2023-04-25T06:43:31;93549.22;;;16.34;65.37
4469;BME280;2247;42.666;23.292;2023-04-25T06:45:58;93533.03;;;16.27;65.29
4469;BME280;2247;42.666;23.292;2023-04-25T06:48:28;93541.41;;;16.17;65.90
4469;BME280;2247;42.666;23.292;2023-04-25T06:50:55;93531.44;;;16.13;65.34
4469;BME280;2247;42.666;23.292;2023-04-25T06:53:23;93523.94;;;15.95;65.74
4469;BME280;2247;42.666;23.292;2023-04-25T06:55:50;93545.50;;;15.93;65.96
4469;BME280;2247;42.666;23.292;2023-04-25T06:58:17;93533.84;;;15.86;65.50
4469;BME280;2247;42.666;23.292;2023-04-25T07:00:44;93526.00;;;15.68;65.27
4469;BME280;2247;42.666;23.292;2023-04-25T07:03:10;93515.56;;;15.63;65.67
4469;BME280;2247;42.666;23.292;2023-04-25T07:05:39;93540.19;;;15.72;66.68
4469;BME280;2247;42.666;23.292;2023-04-25T07:08:05;93535.59;;;15.82;66.17
4469;BME280;2247;42.666;23.292;2023-04-25T07:10:32;93540.19;;;15.72;66.24
4469;BME280;2247;42.666;23.292;2023-04-25T07:12:59;93540.59;;;15.62;67.45
4469;BME280;2247;42.666;23.292;2023-04-25T07:15:26;93541.81;;;15.65;67.04
4469;BME280;2247;42.666;23.292;2023-04-25T07:17:52;93536.13;;;15.75;66.94
4469;BME280;2247;42.666;23.292;2023-04-25T07:20:20;93536.44;;;15.94;67.03
4469;BME280;2247;42.666;23.292;2023-04-25T07:22:48;93537.31;;;16.19;66.47
4469;BME280;2247;42.666;23.292;2023-04-25T07:25:15;93525.28;;;16.34;65.12
4469;BME280;2247;42.666;23.292;2023-04-25T07:27:42;93524.63;;;16.25;64.96
4469;BME280;2247;42.666;23.292;2023-04-25T07:30:10;93519.31;;;16.25;64.49
4469;BME280;2247;42.666;23.292;2023-04-25T07:32:37;93520.91;;;16.38;64.35
4469;BME280;2247;42.666;23.292;2023-04-25T07:35:05;93517.75;;;16.24;65.29
4469;BME280;2247;42.666;23.292;2023-04-25T07:37:33;93515.81;;;16.45;64.35
4469;BME280;2247;42.666;23.292;2023-04-25T07:40:01;93516.38;;;16.50;63.88
4469;BME280;2247;42.666;23.292;2023-04-25T07:42:29;93510.81;;;16.43;64.22
4469;BME280;2247;42.666;23.292;2023-04-25T07:44:56;93515.56;;;16.38;65.53
4469;BME280;2247;42.666;23.292;2023-04-25T07:47:23;93518.59;;;16.48;64.21
4469;BME280;2247;42.666;23.292;2023-04-25T07:49:50;93519.41;;;16.61;63.34
4469;BME280;2247;42.666;23.292;2023-04-25T07:52:18;93514.28;;;16.56;63.91
4469;BME280;2247;42.666;23.292;2023-04-25T07:54:44;93525.16;;;16.51;63.68
4469;BME280;2247;42.666;23.292;2023-04-25T07:57:13;93515.84;;;16.57;63.73
4469;BME280;2247;42.666;23.292;2023-04-25T07:59:42;93516.91;;;16.44;63.98
4469;BME280;2247;42.666;23.292;2023-04-25T08:02:09;93516.50;;;16.54;63.75
4469;BME280;2247;42.666;23.292;2023-04-25T08:04:36;93488.56;;;16.48;62.64
4469;BME280;2247;42.666;23.292;2023-04-25T08:07:03;93515.66;;;16.74;62.71
4469;BME280;2247;42.666;23.292;2023-04-25T08:09:30;93505.81;;;16.75;62.45
4469;BME280;2247;42.666;23.292;2023-04-25T08:12:00;93510.25;;;16.71;61.95
4469;BME280;2247;42.666;23.292;2023-04-25T08:14:31;93510.81;;;16.76;62.02
4469;BME280;2247;42.666;23.292;2023-04-25T08:17:01;93510.81;;;16.88;61.98
4469;BME280;2247;42.666;23.292;2023-04-25T08:19:28;93503.69;;;16.80;61.28
4469;BME280;2247;42.666;23.292;2023-04-25T08:21:55;93500.41;;;16.83;61.19
4469;BME280;2247;42.666;23.292;2023-04-25T08:24:22;93498.19;;;16.85;60.37
4469;BME280;2247;42.666;23.292;2023-04-25T08:26:49;93493.97;;;16.84;60.15
4469;BME280;2247;42.666;23.292;2023-04-25T08:29:16;93495.75;;;16.92;60.28
4469;BME280;2247;42.666;23.292;2023-04-25T08:31:44;93502.72;;;16.97;59.22
4469;BME280;2247;42.666;23.292;2023-04-25T08:34:11;93493.97;;;17.09;58.96
4469;BME280;2247;42.666;23.292;2023-04-25T08:36:38;93498.84;;;17.19;58.82
4469;BME280;2247;42.666;23.292;2023-04-25T08:39:05;93504.63;;;17.21;58.68
4469;BME280;2247;42.666;23.292;2023-04-25T08:41:32;93491.19;;;17.17;58.64
4469;BME280;2247;42.666;23.292;2023-04-25T08:44:00;93504.38;;;17.50;57.97
4469;BME280;2247;42.666;23.292;2023-04-25T08:46:27;93497.94;;;17.51;57.53
4469;BME280;2247;42.666;23.292;2023-04-25T08:49:01;93492.81;;;17.58;56.91
4469;BME280;2247;42.666;23.292;2023-04-25T08:51:31;93482.94;;;17.59;56.82
4469;BME280;2247;42.666;23.292;2023-04-25T08:54:09;93496.16;;;17.55;59.01
4469;BME280;2247;42.666;23.292;2023-04-25T08:56:37;93486.81;;;17.74;57.12
4469;BME280;2247;42.666;23.292;2023-04-25T08:59:05;93482.31;;;17.62;56.25
4469;BME280;2247;42.666;23.292;2023-04-25T09:01:33;93488.16;;;17.67;57.16
4469;BME280;2247;42.666;23.292;2023-04-25T09:04:03;93478.59;;;17.79;56.75
4469;BME280;2247;42.666;23.292;2023-04-25T09:06:31;93481.94;;;17.76;57.07
4469;BME280;2247;42.666;23.292;2023-04-25T09:09:02;93467.72;;;17.71;57.46
4469;BME280;2247;42.666;23.292;2023-04-25T09:11:30;93473.25;;;17.79;58.17
4469;BME280;2247;42.666;23.292;2023-04-25T09:14:13;93475.69;;;17.84;58.30
4469;BME280;2247;42.666;23.292;2023-04-25T09:17:00;93468.19;;;18.01;57.79
4469;BME280;2247;42.666;23.292;2023-04-25T09:19:30;93477.16;;;18.09;57.18
4469;BME280;2247;42.666;23.292;2023-04-25T09:21:58;93473.50;;;18.01;56.75
4469;BME280;2247;42.666;23.292;2023-04-25T09:24:33;93470.97;;;17.93;56.77
4469;BME280;2247;42.666;23.292;2023-04-25T09:27:03;93465.44;;;17.86;55.47
4469;BME280;2247;42.666;23.292;2023-04-25T09:29:30;93432.84;;;17.77;52.54
4469;BME280;2247;42.666;23.292;2023-04-25T09:32:12;93463.75;;;17.93;51.97
4469;BME280;2247;42.666;23.292;2023-04-25T09:34:42;93460.75;;;17.95;51.30
4469;BME280;2247;42.666;23.292;2023-04-25T09:37:09;93466.28;;;18.02;53.04
4469;BME280;2247;42.666;23.292;2023-04-25T09:39:37;93460.97;;;18.02;54.79
4469;BME280;2247;42.666;23.292;2023-04-25T09:42:04;93464.34;;;18.15;54.94
4469;BME280;2247;42.666;23.292;2023-04-25T09:44:31;93465.00;;;18.39;54.79
4469;BME280;2247;42.666;23.292;2023-04-25T09:46:58;93448.03;;;18.47;55.24
4469;BME280;2247;42.666;23.292;2023-04-25T09:49:25;93457.06;;;18.71;52.16
4469;BME280;2247;42.666;23.292;2023-04-25T09:51:57;93459.63;;;18.83;50.85
4469;BME280;2247;42.666;23.292;2023-04-25T09:54:26;93456.34;;;18.89;51.73
4469;BME280;2247;42.666;23.292;2023-04-25T09:56:53;93450.88;;;18.67;52.76
4469;BME280;2247;42.666;23.292;2023-04-25T09:59:21;93451.88;;;18.62;49.79
4469;BME280;2247;42.666;23.292;2023-04-25T10:01:49;93444.31;;;18.64;45.75
4469;BME280;2247;42.666;23.292;2023-04-25T10:04:19;93448.44;;;18.62;46.49
4469;BME280;2247;42.666;23.292;2023-04-25T10:06:49;93448.38;;;18.58;46.26
4469;BME280;2247;42.666;23.292;2023-04-25T10:09:20;93474.31;;;18.45;46.79
4469;BME280;2247;42.666;23.292;2023-04-25T10:11:48;93470.75;;;18.41;50.20
4469;BME280;2247;42.666;23.292;2023-04-25T10:14:17;93497.31;;;18.22;47.21
4469;BME280;2247;42.666;23.292;2023-04-25T10:16:45;93475.00;;;17.87;48.51
4469;BME280;2247;42.666;23.292;2023-04-25T10:19:12;93477.00;;;17.90;48.58
4469;BME280;2247;42.666;23.292;2023-04-25T10:21:46;93466.56;;;17.85;49.94
4469;BME280;2247;42.666;23.292;2023-04-25T10:24:15;93456.78;;;17.89;50.81
4469;BME280;2247;42.666;23.292;2023-04-25T10:26:44;93436.91;;;17.86;51.54
4469;BME280;2247;42.666;23.292;2023-04-25T10:29:21;93443.53;;;18.04;52.13
4469;BME280;2247;42.666;23.292;2023-04-25T10:31:48;93433.03;;;18.12;53.04
4469;BME280;2247;42.666;23.292;2023-04-25T10:34:15;93442.41;;;18.21;53.77
4469;BME280;2247;42.666;23.292;2023-04-25T10:36:42;93440.22;;;18.39;52.48
4469;BME280;2247;42.666;23.292;2023-04-25T10:39:09;93430.25;;;18.52;49.80
4469;BME280;2247;42.666;23.292;2023-04-25T10:41:48;93436.47;;;18.56;47.71
4469;BME280;2247;42.666;23.292;2023-04-25T10:44:18;93432.19;;;18.67;46.39
4469;BME280;2247;42.666;23.292;2023-04-25T10:46:45;93442.03;;;18.50;47.58
4469;BME280;2247;42.666;23.292;2023-04-25T10:49:29;93411.38;;;18.29;48.82
4469;BME280;2247;42.666;23.292;2023-04-25T10:52:11;93444.25;;;18.48;49.33
4469;BME280;2247;42.666;23.292;2023-04-25T10:54:41;93434.78;;;18.35;47.22
4469;BME280;2247;42.666;23.292;2023-04-25T10:57:26;93440.38;;;18.30;44.50
4469;BME280;2247;42.666;23.292;2023-04-25T10:59:54;93427.91;;;18.34;44.79
4469;BME280;2247;42.666;23.292;2023-04-25T11:02:21;93419.38;;;18.29;45.85
4469;BME280;2247;42.666;23.292;2023-04-25T11:04:53;93436.38;;;18.52;46.38
4469;BME280;2247;42.666;23.292;2023-04-25T11:07:26;93434.41;;;18.65;45.48
4469;BME280;2247;42.666;23.292;2023-04-25T11:09:55;93421.06;;;18.65;44.80
4469;BME280;2247;42.666;23.292;2023-04-25T11:12:24;93421.34;;;18.60;44.86
4469;BME280;2247;42.666;23.292;2023-04-25T11:14:58;93416.13;;;18.35;44.14
4469;BME280;2247;42.666;23.292;2023-04-25T11:17:26;93420.59;;;18.31;44.11
4469;BME280;2247;42.666;23.292;2023-04-25T11:19:54;93425.38;;;18.26;44.63
4469;BME280;2247;42.666;23.292;2023-04-25T11:22:21;93424.63;;;18.25;45.09
4469;BME280;2247;42.666;23.292;2023-04-25T11:24:48;93425.22;;;18.34;44.43
4469;BME280;2247;42.666;23.292;2023-04-25T11:27:16;93429.72;;;18.30;45.35
4469;BME280;2247;42.666;23.292;2023-04-25T11:29:44;93417.50;;;18.29;45.51
4469;BME280;2247;42.666;23.292;2023-04-25T11:32:14;93429.59;;;18.27;45.49
4469;BME280;2247;42.666;23.292;2023-04-25T11:34:44;93433.84;;;18.43;45.47
4469;BME280;2247;42.666;23.292;2023-04-25T11:37:12;93444.50;;;18.28;46.29
4469;BME280;2247;42.666;23.292;2023-04-25T11:39:43;93441.13;;;18.15;47.23
4469;BME280;2247;42.666;23.292;2023-04-25T11:42:11;93456.94;;;18.08;47.58
4469;BME280;2247;42.666;23.292;2023-04-25T11:44:39;93415.06;;;17.81;46.71
4469;BME280;2247;42.666;23.292;2023-04-25T11:47:08;93459.59;;;17.80;47.73
4469;BME280;2247;42.666;23.292;2023-04-25T11:49:35;93459.84;;;17.75;48.73
4469;BME280;2247;42.666;23.292;2023-04-25T11:52:02;93459.94;;;17.79;49.74
4469;BME280;2247;42.666;23.292;2023-04-25T11:54:29;93457.47;;;17.86;49.41
4469;BME280;2247;42.666;23.292;2023-04-25T11:56:57;93441.47;;;17.86;49.55
4469;BME280;2247;42.666;23.292;2023-04-25T11:59:24;93431.38;;;17.79;49.55
4469;BME280;2247;42.666;23.292;2023-04-25T12:01:52;93439.19;;;17.60;52.01
4469;BME280;2247;42.666;23.292;2023-04-25T12:04:22;93428.88;;;17.58;53.72
4469;BME280;2247;42.666;23.292;2023-04-25T12:06:49;93432.03;;;17.36;51.38
4469;BME280;2247;42.666;23.292;2023-04-25T12:09:18;93434.09;;;17.15;52.18
4469;BME280;2247;42.666;23.292;2023-04-25T12:11:48;93427.19;;;17.14;53.87
4469;BME280;2247;42.666;23.292;2023-04-25T12:14:21;93430.84;;;17.09;52.55
4469;BME280;2247;42.666;23.292;2023-04-25T12:16:49;93431.97;;;16.96;53.06
4469;BME280;2247;42.666;23.292;2023-04-25T12:19:19;93422.66;;;17.14;53.61
4469;BME280;2247;42.666;23.292;2023-04-25T12:21:48;93419.28;;;17.42;53.50
4469;BME280;2247;42.666;23.292;2023-04-25T12:24:17;93412.25;;;17.49;53.18
4469;BME280;2247;42.666;23.292;2023-04-25T12:26:49;93391.88;;;17.41;52.10
4469;BME280;2247;42.666;23.292;2023-04-25T12:29:18;93398.53;;;17.35;52.69
4469;BME280;2247;42.666;23.292;2023-04-25T12:31:45;93439.97;;;17.60;52.86
4469;BME280;2247;42.666;23.292;2023-04-25T12:34:12;93443.34;;;17.45;53.80
4469;BME280;2247;42.666;23.292;2023-04-25T12:36:39;93454.44;;;17.47;54.03
4469;BME280;2247;42.666;23.292;2023-04-25T12:39:08;93478.66;;;17.30;53.24
4469;BME280;2247;42.666;23.292;2023-04-25T12:41:35;93471.13;;;17.20;53.90
4469;BME280;2247;42.666;23.292;2023-04-25T12:44:03;93463.03;;;16.80;54.99
4469;BME280;2247;42.666;23.292;2023-04-25T12:46:29;93481.13;;;16.99;55.62
4469;BME280;2247;42.666;23.292;2023-04-25T12:48:56;93486.63;;;16.81;56.30
4469;BME280;2247;42.666;23.292;2023-04-25T12:51:23;93490.41;;;16.80;56.71
4469;BME280;2247;42.666;23.292;2023-04-25T12:53:50;93497.63;;;16.92;55.64
4469;BME280;2247;42.666;23.292;2023-04-25T12:56:19;93500.16;;;16.88;56.97
4469;BME280;2247;42.666;23.292;2023-04-25T12:58:46;93505.94;;;16.90;58.10
4469;BME280;2247;42.666;23.292;2023-04-25T13:01:13;93507.28;;;16.84;57.93
4469;BME280;2247;42.666;23.292;2023-04-25T13:03:40;93505.50;;;16.88;57.46
4469;BME280;2247;42.666;23.292;2023-04-25T13:06:07;93515.91;;;16.81;57.53
4469;BME280;2247;42.666;23.292;2023-04-25T13:08:34;93509.63;;;16.86;58.55
4469;BME280;2247;42.666;23.292;2023-04-25T13:11:02;93505.28;;;17.06;58.92
4469;BME280;2247;42.666;23.292;2023-04-25T13:13:31;93496.97;;;17.07;59.83
4469;BME280;2247;42.666;23.292;2023-04-25T13:16:00;93499.41;;;17.12;60.80